Time;durP1;ratioP1;P1;durP2;ratioP2;P2;SDS_P1;SDS_P2;PMS_P1;PMS_P2;Temp;Humidity;BMP_temperature;BMP_pressure;BME280_temperature;BME280_humidity;BME280_pressure;Samples;Min_cycle;Max_cycle;Signal;HPM_P1;HPM_P2
2022/01/02 00:01:48;;;;;;;2.80;0.80;;;;;;;-0.30;93.16;99485.20;1747936;81;21038;-67
2022/01/02 00:04:17;;;;;;;1.10;0.80;;;;;;;-0.33;92.64;99495.17;1749792;81;20978;-68
2022/01/02 00:06:51;;;;;;;1.22;0.47;;;;;;;-0.34;93.32;99502.20;1746837;81;20976;-66
2022/01/02 00:09:26;;;;;;;1.00;0.80;;;;;;;-0.39;91.31;99502.91;1747897;81;21088;-66
2022/01/02 00:11:55;;;;;;;3.33;1.10;;;;;;;-0.38;93.43;99508.11;1747691;81;20942;-68
2022/01/02 00:14:25;;;;;;;1.72;0.82;;;;;;;-0.37;94.78;99515.68;1747956;81;20993;-66
2022/01/02 00:16:55;;;;;;;2.10;0.95;;;;;;;-0.39;91.76;99521.34;1749788;81;21048;-67
2022/01/02 00:19:29;;;;;;;1.37;0.88;;;;;;;-0.37;91.82;99526.52;1732970;81;22187;-64
2022/01/02 00:21:52;;;;;;;1.85;1.10;;;;;;;-0.35;92.49;99539.28;1743695;81;21453;-67
2022/01/02 00:24:20;;;;;;;1.40;0.80;;;;;;;-0.33;91.98;99537.16;1745820;81;21481;-67
2022/01/02 00:26:49;;;;;;;3.58;1.45;;;;;;;-0.31;90.25;99561.28;1749217;81;20948;-68
2022/01/02 00:29:16;;;;;;;6.25;2.00;;;;;;;-0.30;91.26;99548.84;1730660;82;20933;-66
2022/01/02 00:31:42;;;;;;;2.15;0.95;;;;;;;-0.29;90.67;99551.83;1750976;81;21200;-67
2022/01/02 00:34:09;;;;;;;1.27;0.80;;;;;;;-0.28;89.05;99567.03;1747443;81;21036;-66
2022/01/02 00:36:37;;;;;;;3.47;1.72;;;;;;;-0.29;88.07;99568.08;1748487;81;21025;-67
2022/01/02 00:39:06;;;;;;;3.55;1.95;;;;;;;-0.27;88.24;99570.53;1748381;81;21532;-69
2022/01/02 00:41:54;;;;;;;3.35;1.30;;;;;;;-0.27;89.29;99575.42;1748587;81;21040;-68
2022/01/02 00:44:59;;;;;;;4.28;1.57;;;;;;;-0.27;88.08;99576.78;1745797;81;21873;-67
2022/01/02 00:47:39;;;;;;;2.05;1.20;;;;;;;-0.26;90.18;99580.31;1693639;81;20986;-69
2022/01/02 00:50:12;;;;;;;3.50;1.80;;;;;;;-0.25;89.70;99584.66;1747392;81;21001;-67
2022/01/02 00:52:43;;;;;;;2.40;1.37;;;;;;;-0.27;89.76;99584.91;1748318;81;20949;-67
2022/01/02 00:55:15;;;;;;;1.27;1.07;;;;;;;-0.29;90.46;99583.52;1749438;81;21516;-68
2022/01/02 00:57:43;;;;;;;2.62;1.37;;;;;;;-0.31;89.19;99582.42;1748604;80;21140;-68
2022/01/02 01:00:15;;;;;;;1.90;1.20;;;;;;;-0.31;89.92;99573.47;1750185;81;21495;-68
2022/01/02 01:02:53;;;;;;;3.70;1.40;;;;;;;-0.32;88.25;99588.88;1743588;81;20929;-70
2022/01/02 01:05:22;;;;;;;4.20;1.65;;;;;;;-0.34;84.31;99565.28;1748556;81;21013;-68
2022/01/02 01:07:53;;;;;;;2.70;1.30;;;;;;;-0.30;85.40;99578.63;1749014;81;21000;-69
2022/01/02 01:10:22;;;;;;;4.08;1.67;;;;;;;-0.28;85.11;99577.86;1747753;81;21489;-69
2022/01/02 01:12:54;;;;;;;3.25;1.52;;;;;;;-0.28;84.68;99583.28;1724406;81;21003;-68
2022/01/02 01:15:21;;;;;;;3.27;1.55;;;;;;;-0.28;84.63;99581.92;1726164;81;21667;-69
2022/01/02 01:17:52;;;;;;;3.42;1.82;;;;;;;-0.28;84.60;99581.92;1746591;81;21048;-68
2022/01/02 01:20:19;;;;;;;3.98;1.62;;;;;;;-0.28;84.94;99583.28;1747257;81;21105;-68
2022/01/02 01:22:46;;;;;;;1.27;0.93;;;;;;;-0.28;85.41;99594.63;1745187;81;21055;-68
2022/01/02 01:25:16;;;;;;;3.72;1.50;;;;;;;-0.28;85.38;99595.98;1743927;81;21528;-68
2022/01/02 01:27:42;;;;;;;2.05;1.10;;;;;;;-0.28;85.10;99600.05;1742250;81;21531;-69
2022/01/02 01:30:11;;;;;;;1.92;1.10;;;;;;;-0.29;85.19;99609.25;1745232;81;21161;-69
2022/01/02 01:32:39;;;;;;;4.47;0.88;;;;;;;-0.28;86.04;99606.30;1746641;81;20969;-69
2022/01/02 01:35:06;;;;;;;1.70;0.70;;;;;;;-0.29;84.83;99612.77;1750213;81;21084;-70
2022/01/02 01:37:34;;;;;;;1.72;1.00;;;;;;;-0.31;84.92;99616.27;1748224;81;21494;-68
2022/01/02 01:40:01;;;;;;;1.37;0.70;;;;;;;-0.31;85.12;99621.69;1750228;81;20949;-69
2022/01/02 01:42:40;;;;;;;1.30;0.60;;;;;;;-0.29;84.68;99620.09;1749547;81;21413;-68
2022/01/02 01:47:49;;;;;;;4.08;1.10;;;;;;;-0.36;81.55;99627.02;1745979;81;20921;-67
2022/01/02 01:50:17;;;;;;;2.52;1.25;;;;;;;-0.37;81.49;99628.06;1749790;81;20916;-69
2022/01/02 01:52:45;;;;;;;1.22;0.70;;;;;;;-0.38;80.40;99623.73;1731187;81;21532;-68
2022/01/02 01:55:16;;;;;;;1.42;0.80;;;;;;;-0.40;79.09;99638.03;1690365;82;21078;-68
2022/01/02 01:57:43;;;;;;;1.95;1.05;;;;;;;-0.38;79.82;99631.84;1718726;82;21016;-68
2022/01/02 02:00:15;;;;;;;4.22;1.02;;;;;;;-0.43;74.56;99639.36;1714985;83;21088;-68
2022/01/02 02:02:44;;;;;;;6.25;1.55;;;;;;;-0.45;74.72;99640.65;1715706;83;21063;-68
2022/01/02 02:05:13;;;;;;;1.57;0.88;;;;;;;-0.44;73.98;99630.09;1721925;83;21098;-70
2022/01/02 02:07:43;;;;;;;2.55;1.02;;;;;;;-0.48;71.40;99642.50;1689333;83;21027;-67
2022/01/02 02:10:31;;;;;;;0.65;0.55;;;;;;;-0.52;70.82;99645.70;1711762;83;21077;-66
2022/01/02 02:12:46;;;;;;;4.58;0.80;;;;;;;-0.55;70.62;99657.02;1714644;82;21117;-68
2022/01/02 02:15:15;;;;;;;1.10;0.82;;;;;;;-0.56;71.05;99652.65;1717104;82;21036;-66
2022/01/02 02:17:44;;;;;;;1.65;0.70;;;;;;;-0.62;69.58;99657.69;1721065;82;21016;-69
2022/01/02 02:20:21;;;;;;;1.40;0.80;;;;;;;-0.60;70.48;99659.63;1719193;82;20976;-69
2022/01/02 02:22:53;;;;;;;0.50;0.40;;;;;;;-0.60;70.59;99670.45;1726621;82;20972;-68
2022/01/02 02:25:30;;;;;;;1.50;0.70;;;;;;;-0.63;69.41;99669.03;1723625;82;21110;-66
2022/01/02 02:28:09;;;;;;;1.62;0.80;;;;;;;-0.63;69.98;99683.92;1713045;82;20959;-66
2022/01/02 02:30:38;;;;;;;1.45;0.60;;;;;;;-0.69;68.44;99684.07;1720762;83;20857;-69
2022/01/02 02:33:06;;;;;;;1.60;1.00;;;;;;;-0.72;68.89;99681.33;1715407;82;20987;-67
2022/01/02 02:35:35;;;;;;;2.02;0.70;;;;;;;-0.78;68.11;99691.22;1717009;82;21024;-66
2022/01/02 02:38:03;;;;;;;1.67;1.00;;;;;;;-0.82;67.54;99690.04;1689626;82;21045;-68
2022/01/02 02:40:31;;;;;;;1.05;0.68;;;;;;;-0.88;67.25;99684.24;1714386;82;21107;-65
2022/01/02 02:43:19;;;;;;;1.42;0.70;;;;;;;-0.90;68.00;99687.72;1716600;82;20968;-68
2022/01/02 02:51:14;;;;;;;1.10;0.78;;;;;;;-1.09;67.70;99691.13;1714893;82;21281;-68
2022/01/02 02:53:45;;;;;;;1.37;0.55;;;;;;;-1.13;68.42;99682.14;1721560;82;21400;-69
2022/01/02 02:56:40;;;;;;;1.05;0.80;;;;;;;-1.15;68.73;99698.30;1718381;82;21055;-69
2022/01/02 02:58:57;;;;;;;1.02;0.72;;;;;;;-1.19;68.98;99697.13;1714801;82;21036;-69
2022/01/02 03:01:28;;;;;;;1.02;0.93;;;;;;;-1.24;69.31;99697.31;1718785;82;21436;-66
2022/01/02 03:03:54;;;;;;;0.82;0.75;;;;;;;-1.29;69.53;99698.55;1720609;82;21462;-67
2022/01/02 03:06:21;;;;;;;1.30;0.80;;;;;;;-1.36;69.87;99700.55;1717998;83;20944;-66
2022/01/02 03:08:48;;;;;;;1.40;0.85;;;;;;;-1.39;69.45;99707.79;1715492;83;20964;-69
2022/01/02 03:11:19;;;;;;;0.85;0.70;;;;;;;-1.43;69.57;99710.69;1710229;82;21027;-69
2022/01/02 03:13:47;;;;;;;0.62;0.60;;;;;;;-1.44;69.99;99707.67;1717103;83;21015;-68
2022/01/02 03:16:14;;;;;;;1.10;0.90;;;;;;;-1.47;70.21;99717.09;1731877;82;21118;-68
2022/01/02 03:18:42;;;;;;;1.22;0.75;;;;;;;-1.53;70.19;99724.77;1721771;82;20960;-69
2022/01/02 03:21:09;;;;;;;1.52;0.88;;;;;;;-1.54;70.56;99725.83;1718121;82;20948;-66
2022/01/02 03:23:36;;;;;;;0.93;0.78;;;;;;;-1.57;70.42;99719.55;1716495;83;21024;-67
2022/01/02 03:26:05;;;;;;;1.32;1.02;;;;;;;-1.59;70.37;99727.89;1724915;82;21523;-66
2022/01/02 03:28:34;;;;;;;1.42;0.80;;;;;;;-1.64;69.74;99727.77;1715089;82;21117;-66
2022/01/02 03:31:02;;;;;;;1.92;1.00;;;;;;;-1.67;69.81;99730.95;1715376;82;21054;-68
2022/01/02 03:33:30;;;;;;;1.10;1.00;;;;;;;-1.69;70.22;99737.94;1720114;82;21023;-68
2022/01/02 03:35:57;;;;;;;1.80;1.12;;;;;;;-1.74;69.91;99744.56;1716507;82;21249;-68
2022/01/02 03:38:23;;;;;;;4.20;1.05;;;;;;;-1.77;70.07;99756.64;1713924;82;21057;-68
2022/01/02 03:40:51;;;;;;;2.62;1.02;;;;;;;-1.80;69.78;99754.94;1717927;82;21107;-68
2022/01/02 03:43:19;;;;;;;2.58;1.20;;;;;;;-1.81;69.79;99760.88;1716570;83;21052;-67
2022/01/02 03:45:46;;;;;;;1.42;0.90;;;;;;;-1.82;69.94;99759.22;1713473;82;21528;-66
2022/01/02 03:48:13;;;;;;;2.92;1.30;;;;;;;-1.82;69.82;99766.49;1715636;82;21028;-67
2022/01/02 03:50:39;;;;;;;1.90;1.00;;;;;;;-1.86;70.02;99776.97;1714751;82;20996;-69
2022/01/02 03:53:09;;;;;;;1.67;0.80;;;;;;;-1.90;70.19;99778.47;1720935;82;20885;-67
2022/01/02 03:55:36;;;;;;;1.45;0.85;;;;;;;-1.93;70.20;99781.12;1691258;82;20977;-69
2022/01/02 03:58:03;;;;;;;0.88;0.82;;;;;;;-1.93;70.40;99788.39;1716467;83;20988;-67
2022/01/02 04:00:31;;;;;;;1.37;0.88;;;;;;;-1.96;70.52;99789.14;1716531;83;21529;-68
2022/01/02 04:02:59;;;;;;;1.75;1.10;;;;;;;-1.94;70.70;99807.02;1723905;83;20968;-68
2022/01/02 04:05:25;;;;;;;2.42;0.93;;;;;;;-1.96;70.80;99814.80;1722310;83;21759;-68
2022/01/02 04:07:53;;;;;;;2.27;1.40;;;;;;;-1.97;70.73;99814.52;1727748;83;21622;-69
2022/01/02 04:10:20;;;;;;;1.77;1.17;;;;;;;-1.98;70.96;99819.60;1719057;82;20992;-67
2022/01/02 04:12:47;;;;;;;1.92;0.95;;;;;;;-1.99;71.14;99826.07;1719015;83;20999;-68
2022/01/02 04:15:15;;;;;;;4.87;1.02;;;;;;;-2.00;71.21;99829.00;1721925;82;21427;-67
2022/01/02 04:17:42;;;;;;;1.50;1.20;;;;;;;-2.00;71.28;99831.19;1726669;82;21190;-68
2022/01/02 04:20:14;;;;;;;2.10;1.30;;;;;;;-2.01;71.56;99831.39;1714081;82;20980;-69
2022/01/02 04:22:42;;;;;;;1.10;0.98;;;;;;;-2.03;71.50;99834.31;1718896;83;21171;-66
2022/01/02 04:25:10;;;;;;;1.77;1.02;;;;;;;-2.06;71.71;99838.03;1721864;83;21674;-69
2022/01/02 04:27:36;;;;;;;1.82;1.07;;;;;;;-2.13;71.08;99838.92;1689208;83;21103;-69
2022/01/02 04:30:07;;;;;;;4.72;1.00;;;;;;;-2.17;70.89;99846.36;1715381;82;21495;-67
2022/01/02 04:32:34;;;;;;;2.50;1.55;;;;;;;-2.23;70.36;99846.73;1719471;82;20885;-69
2022/01/02 04:35:02;;;;;;;1.55;1.00;;;;;;;-2.26;70.55;99843.97;1725079;83;21007;-68
2022/01/02 04:37:31;;;;;;;1.62;1.05;;;;;;;-2.29;71.09;99851.70;1719136;82;20952;-68
2022/01/02 04:39:57;;;;;;;1.70;1.00;;;;;;;-2.35;71.18;99860.16;1718075;82;20896;-68
2022/01/02 04:42:24;;;;;;;2.52;1.20;;;;;;;-2.38;71.68;99856.05;1716135;82;21178;-69
2022/01/02 04:44:51;;;;;;;2.25;1.02;;;;;;;-2.41;71.73;99862.42;1720116;83;20991;-69
2022/01/02 04:47:18;;;;;;;2.22;1.10;;;;;;;-2.46;71.86;99871.20;1725142;83;21578;-69
2022/01/02 04:49:46;;;;;;;2.35;1.00;;;;;;;-2.52;72.25;99875.62;1718162;82;21004;-66
2022/01/02 04:52:13;;;;;;;2.77;1.40;;;;;;;-2.54;72.40;99880.95;1715778;82;21011;-69
2022/01/02 04:54:40;;;;;;;1.00;0.80;;;;;;;-2.57;72.50;99884.91;1719198;83;21050;-68
2022/01/02 04:57:06;;;;;;;2.42;0.88;;;;;;;-2.63;72.35;99893.39;1718851;82;20965;-66
2022/01/02 04:59:33;;;;;;;2.42;1.32;;;;;;;-2.67;72.30;99892.17;1721508;82;21080;-67
2022/01/02 05:02:01;;;;;;;1.95;1.22;;;;;;;-2.70;72.24;99906.12;1723367;82;21026;-66
2022/01/02 05:04:28;;;;;;;2.35;1.27;;;;;;;-2.72;72.21;99909.55;1717682;82;20964;-69
2022/01/02 05:06:57;;;;;;;2.47;1.17;;;;;;;-2.76;72.06;99914.56;1709783;83;21536;-69
2022/01/02 05:09:24;;;;;;;1.77;1.15;;;;;;;-2.80;71.99;99912.02;1718917;82;21105;-68
2022/01/02 05:11:52;;;;;;;2.55;1.27;;;;;;;-2.84;71.85;99909.45;1717920;82;21075;-67
2022/01/02 05:14:19;;;;;;;3.95;1.90;;;;;;;-2.86;71.89;99906.14;1718153;82;21638;-68
2022/01/02 05:16:46;;;;;;;2.52;1.07;;;;;;;-2.87;71.97;99905.86;1720392;82;21051;-67
2022/01/02 05:19:14;;;;;;;2.30;1.35;;;;;;;-2.89;71.96;99907.94;1720076;82;21146;-67
2022/01/02 05:21:40;;;;;;;1.80;1.10;;;;;;;-2.94;72.07;99908.61;1717217;82;20956;-68
2022/01/02 05:24:09;;;;;;;2.52;1.57;;;;;;;-2.97;72.04;99911.75;1728894;82;21500;-66
2022/01/02 05:26:36;;;;;;;1.95;1.30;;;;;;;-2.97;71.95;99907.70;1714902;82;20969;-67
2022/01/02 05:29:05;;;;;;;1.77;1.22;;;;;;;-3.02;71.07;99900.80;1687560;82;21044;-68
2022/01/02 05:31:33;;;;;;;2.62;1.20;;;;;;;-3.03;70.86;99905.36;1716084;82;21250;-68
2022/01/02 05:33:59;;;;;;;2.08;1.00;;;;;;;-3.06;70.96;99914.73;1717227;82;20972;-68
2022/01/02 05:36:28;;;;;;;1.27;1.07;;;;;;;-3.08;70.97;99911.42;1718045;82;21114;-67
2022/01/02 05:38:56;;;;;;;4.03;1.42;;;;;;;-3.12;70.95;99920.98;1712653;82;21070;-67
2022/01/02 05:41:22;;;;;;;2.87;1.30;;;;;;;-3.14;71.25;99912.82;1718013;82;21504;-65
2022/01/02 05:43:50;;;;;;;2.40;1.50;;;;;;;-3.18;71.10;99925.39;1716554;83;21126;-68
2022/01/02 05:46:17;;;;;;;2.85;1.17;;;;;;;-3.21;71.11;99941.98;1715207;83;21000;-68
2022/01/02 05:48:46;;;;;;;4.67;1.60;;;;;;;-3.25;71.04;99927.81;1716110;82;21012;-68
2022/01/02 05:51:14;;;;;;;3.22;1.30;;;;;;;-3.27;71.08;99928.04;1712961;83;20924;-69
2022/01/02 05:53:41;;;;;;;4.42;1.30;;;;;;;-3.28;71.16;99929.09;1722109;82;21001;-68
2022/01/02 05:56:07;;;;;;;3.95;1.95;;;;;;;-3.33;70.78;99931.62;1715390;82;21519;-68
2022/01/02 05:58:35;;;;;;;2.87;1.45;;;;;;;-3.34;71.00;99942.08;1717375;82;21018;-69
2022/01/02 06:01:03;;;;;;;5.20;2.20;;;;;;;-3.38;70.76;99950.30;1719862;83;21117;-67
2022/01/02 06:03:31;;;;;;;3.02;1.72;;;;;;;-3.39;71.32;99957.56;1715427;82;21003;-69
2022/01/02 06:05:59;;;;;;;4.08;1.90;;;;;;;-3.40;71.43;99954.56;1728190;82;21595;-68
2022/01/02 06:08:26;;;;;;;3.70;2.10;;;;;;;-3.43;71.18;99958.51;1722707;82;21123;-69
2022/01/02 06:10:56;;;;;;;3.72;1.75;;;;;;;-3.45;71.18;99961.13;1714677;83;21457;-66
2022/01/02 06:13:23;;;;;;;4.58;1.85;;;;;;;-3.48;71.19;99969.65;1721519;82;21061;-70
2022/01/02 06:15:53;;;;;;;4.53;2.45;;;;;;;-3.54;71.28;99965.94;1714558;82;21089;-69
2022/01/02 06:18:19;;;;;;;2.55;1.52;;;;;;;-3.53;71.56;99968.12;1686014;82;20905;-67
2022/01/02 06:20:46;;;;;;;1.90;1.47;;;;;;;-3.55;71.54;99969.69;1718790;82;21511;-67
2022/01/02 06:23:18;;;;;;;4.58;2.12;;;;;;;-3.56;71.63;99963.46;1682190;82;20996;-68
2022/01/02 06:25:46;;;;;;;2.45;1.98;;;;;;;-3.58;71.80;99969.58;1719757;82;21433;-67
2022/01/02 06:28:14;;;;;;;4.20;1.90;;;;;;;-3.59;72.02;99965.24;1720659;82;21058;-67
2022/01/02 06:30:41;;;;;;;5.28;1.95;;;;;;;-3.60;72.03;99962.77;1715446;82;21572;-68
2022/01/02 06:33:10;;;;;;;2.83;1.90;;;;;;;-3.59;72.16;99968.45;1722142;82;21135;-67
2022/01/02 06:35:37;;;;;;;3.45;1.95;;;;;;;-3.60;72.16;99965.46;1725492;82;20953;-68
2022/01/02 06:38:15;;;;;;;1.67;1.25;;;;;;;-3.58;72.41;99964.70;1717205;82;20928;-66
2022/01/02 06:40:45;;;;;;;4.80;2.00;;;;;;;-3.58;72.31;99970.09;1716880;82;20992;-67
2022/01/02 06:43:14;;;;;;;4.62;1.90;;;;;;;-3.57;72.48;99967.20;1717230;82;21540;-67
2022/01/02 06:45:41;;;;;;;4.17;2.15;;;;;;;-3.55;72.49;99962.41;1718458;82;21514;-69
2022/01/02 06:48:08;;;;;;;4.00;1.98;;;;;;;-3.55;72.37;99973.73;1718854;82;20984;-68
2022/01/02 06:50:34;;;;;;;3.55;2.15;;;;;;;-3.55;72.76;99965.64;1717480;82;21052;-68
2022/01/02 06:53:02;;;;;;;4.20;1.85;;;;;;;-3.47;72.95;99976.68;1688503;83;21096;-67
2022/01/02 06:55:30;;;;;;;7.70;3.05;;;;;;;-3.44;72.62;99983.81;1716690;82;20995;-68
2022/01/02 06:57:57;;;;;;;5.72;2.10;;;;;;;-3.44;72.28;99977.08;1718326;83;21134;-69
2022/01/02 07:00:23;;;;;;;5.85;2.60;;;;;;;-3.47;72.05;99985.60;1725076;82;20944;-64
2022/01/02 07:02:51;;;;;;;3.70;2.27;;;;;;;-3.47;72.42;99985.60;1726272;83;21468;-68
2022/01/02 07:05:18;;;;;;;6.53;2.65;;;;;;;-3.43;72.21;99988.70;1707248;82;20977;-67
2022/01/02 07:07:46;;;;;;;5.60;2.37;;;;;;;-3.44;72.36;99997.30;1720712;82;20900;-69
2022/01/02 07:10:15;;;;;;;5.53;2.92;;;;;;;-3.44;72.08;99990.55;1716417;82;21558;-67
2022/01/02 07:12:42;;;;;;;3.30;2.10;;;;;;;-3.43;72.07;99987.34;1711709;82;21023;-68
2022/01/02 07:15:09;;;;;;;7.00;2.60;;;;;;;-3.43;71.92;99991.39;1717468;82;21062;-68
2022/01/02 07:17:37;;;;;;;4.10;2.25;;;;;;;-3.41;72.15;99990.62;1713789;82;21005;-70
2022/01/02 07:20:07;;;;;;;9.18;4.05;;;;;;;-3.35;72.14;99990.30;1720210;82;21036;-69
2022/01/02 07:22:37;;;;;;;6.30;3.03;;;;;;;-3.34;72.05;99989.25;1719853;83;21139;-70
2022/01/02 07:25:04;;;;;;;4.17;2.30;;;;;;;-3.32;71.79;99993.39;1717002;82;21097;-68
2022/01/02 07:27:32;;;;;;;4.05;2.17;;;;;;;-3.28;71.99;99999.70;1719310;82;21138;-68
2022/01/02 07:29:59;;;;;;;4.53;2.25;;;;;;;-3.23;71.64;100000.71;1717504;82;21032;-69
2022/01/02 07:32:26;;;;;;;4.90;2.35;;;;;;;-3.21;71.27;100012.08;1715721;83;21012;-69
2022/01/02 07:34:54;;;;;;;2.70;1.40;;;;;;;-3.22;70.86;100005.05;1717726;82;21624;-69
2022/01/02 07:37:22;;;;;;;5.53;2.60;;;;;;;-3.24;69.49;100011.17;1721056;82;21000;-69
2022/01/02 07:39:50;;;;;;;8.60;2.12;;;;;;;-3.28;70.00;100016.70;1714611;82;21028;-68
2022/01/02 07:42:17;;;;;;;2.40;1.52;;;;;;;-3.26;70.12;100017.33;1720095;82;20964;-69
2022/01/02 07:44:49;;;;;;;2.58;1.50;;;;;;;-3.21;69.56;100022.06;1714729;82;21063;-68
2022/01/02 07:47:17;;;;;;;3.27;2.17;;;;;;;-3.19;69.03;100032.92;1713974;83;20976;-68
2022/01/02 07:49:44;;;;;;;4.97;2.35;;;;;;;-3.16;69.47;100033.03;1717363;82;21024;-68
2022/01/02 07:52:12;;;;;;;3.75;1.98;;;;;;;-3.13;69.56;100026.36;1716756;82;21035;-67
2022/01/02 07:54:38;;;;;;;3.90;2.17;;;;;;;-3.13;68.93;100033.10;1715687;82;20958;-69
2022/01/02 07:57:06;;;;;;;4.85;2.77;;;;;;;-3.15;68.95;100031.97;1715139;82;21481;-69
2022/01/02 07:59:32;;;;;;;4.20;2.30;;;;;;;-3.13;68.64;100034.45;1722488;82;21011;-69
2022/01/02 08:01:59;;;;;;;6.30;1.98;;;;;;;-3.07;68.56;100025.52;1717548;82;21442;-68
2022/01/02 08:04:26;;;;;;;4.12;2.00;;;;;;;-3.00;67.76;100028.17;1718971;82;20972;-69
2022/01/02 08:06:52;;;;;;;4.25;2.00;;;;;;;-2.99;67.08;100021.72;1719481;83;21267;-68
2022/01/02 08:09:18;;;;;;;3.75;1.75;;;;;;;-2.95;66.62;100032.39;1716291;83;21011;-68
2022/01/02 08:11:45;;;;;;;5.40;2.20;;;;;;;-2.97;64.48;100036.63;1719557;82;21154;-69
2022/01/02 08:14:12;;;;;;;5.58;2.40;;;;;;;-2.98;64.33;100035.50;1717950;82;21631;-68
2022/01/02 08:16:39;;;;;;;6.80;2.47;;;;;;;-2.96;63.82;100042.34;1691339;83;21053;-69
2022/01/02 08:19:08;;;;;;;10.82;3.60;;;;;;;-2.96;64.19;100028.86;1714317;83;21618;-69
2022/01/02 08:21:52;;;;;;;11.53;4.55;;;;;;;-2.88;64.72;100029.11;1721377;82;21059;-69
2022/01/02 08:24:18;;;;;;;3.70;1.87;;;;;;;-2.77;64.79;100032.16;1691791;82;21873;-66
2022/01/02 08:26:46;;;;;;;11.80;3.35;;;;;;;-2.71;62.36;100027.22;1711052;82;21130;-69
2022/01/02 08:29:16;;;;;;;5.87;2.75;;;;;;;-2.70;62.47;100036.98;1685292;83;21587;-65
2022/01/02 08:31:43;;;;;;;8.35;2.17;;;;;;;-2.65;62.56;100031.76;1715165;82;21092;-69
2022/01/02 08:34:10;;;;;;;5.53;2.15;;;;;;;-2.58;61.15;100031.70;1718032;83;21472;-69
2022/01/02 08:36:38;;;;;;;3.87;1.85;;;;;;;-2.53;61.30;100029.17;1711806;82;21068;-68
2022/01/02 08:39:04;;;;;;;6.95;2.60;;;;;;;-2.49;60.62;100027.67;1712665;82;21406;-68
2022/01/02 08:41:33;;;;;;;6.92;1.70;;;;;;;-2.46;60.98;100017.77;1711693;83;21115;-69
2022/01/02 08:44:01;;;;;;;3.87;2.15;;;;;;;-2.41;60.58;100011.73;1715135;83;20865;-71
2022/01/02 08:46:28;;;;;;;2.85;1.50;;;;;;;-2.33;60.49;100013.31;1717624;83;20964;-69
2022/01/02 08:48:54;;;;;;;2.92;1.85;;;;;;;-2.26;59.26;100013.25;1714614;83;21012;-67
2022/01/02 08:51:23;;;;;;;2.77;1.45;;;;;;;-2.25;59.19;100013.57;1688655;83;21191;-69
2022/01/02 08:53:49;;;;;;;2.98;1.50;;;;;;;-2.28;57.77;100014.83;1718180;83;21071;-66
2022/01/02 08:56:15;;;;;;;3.10;1.95;;;;;;;-2.28;58.01;100004.54;1714262;82;21050;-69
2022/01/02 08:58:42;;;;;;;5.15;1.98;;;;;;;-2.24;57.61;100003.06;1713957;82;21091;-68
2022/01/02 09:01:09;;;;;;;5.70;2.00;;;;;;;-2.23;56.99;100008.23;1711033;82;21063;-68
2022/01/02 09:03:37;;;;;;;3.42;1.70;;;;;;;-2.15;58.07;100009.00;1714008;83;21058;-65
2022/01/02 09:06:06;;;;;;;4.03;2.05;;;;;;;-2.07;56.82;99999.25;1712506;81;21512;-69
2022/01/02 09:08:33;;;;;;;6.47;1.80;;;;;;;-2.06;56.46;99992.79;1713158;82;20977;-68
2022/01/02 09:11:00;;;;;;;4.92;1.85;;;;;;;-2.02;56.30;99991.30;1713160;82;20973;-69
2022/01/02 09:13:28;;;;;;;5.15;2.22;;;;;;;-1.94;56.13;99988.81;1714916;82;20901;-68
2022/01/02 09:15:55;;;;;;;4.15;1.85;;;;;;;-1.88;56.46;99993.34;1714684;83;21090;-68
2022/01/02 09:18:22;;;;;;;9.83;3.20;;;;;;;-1.79;56.27;100003.30;1717029;83;21080;-69
2022/01/02 09:20:50;;;;;;;9.73;2.65;;;;;;;-1.76;55.75;99996.11;1711613;83;21529;-67
2022/01/02 09:23:19;;;;;;;4.17;1.67;;;;;;;-1.73;55.19;100008.33;1715403;82;21044;-69
2022/01/02 09:25:46;;;;;;;2.85;1.47;;;;;;;-1.69;54.83;100012.77;1716319;82;21114;-68
2022/01/02 09:28:14;;;;;;;3.60;1.72;;;;;;;-1.61;55.55;100012.45;1717023;82;21527;-68
2022/01/02 09:30:41;;;;;;;4.47;1.47;;;;;;;-1.52;54.81;100012.43;1709828;82;21048;-68
2022/01/02 09:33:08;;;;;;;6.58;2.27;;;;;;;-1.44;53.26;100011.31;1717220;83;21013;-69
2022/01/02 09:35:38;;;;;;;9.38;2.37;;;;;;;-1.50;53.20;100013.58;1714748;82;21493;-67
2022/01/02 09:38:05;;;;;;;6.37;2.75;;;;;;;-1.56;53.68;100006.36;1713121;82;21101;-68
2022/01/02 09:40:32;;;;;;;6.78;2.10;;;;;;;-1.58;54.21;99993.08;1712957;82;21056;-68
2022/01/02 09:42:59;;;;;;;2.95;1.87;;;;;;;-1.42;54.93;100002.97;1714712;82;20960;-68
2022/01/02 09:45:27;;;;;;;5.58;2.90;;;;;;;-1.28;54.20;100005.78;1709667;82;21486;-70
2022/01/02 09:47:56;;;;;;;5.03;2.12;;;;;;;-1.24;54.54;100010.20;1712625;82;21012;-68
2022/01/02 09:50:23;;;;;;;6.17;2.70;;;;;;;-1.12;53.88;100017.02;1714989;81;21440;-66
2022/01/02 09:52:54;;;;;;;5.20;2.20;;;;;;;-1.08;54.21;100012.80;1713243;82;21111;-65
2022/01/02 09:55:23;;;;;;;6.55;2.08;;;;;;;-1.00;53.32;100003.00;1712199;82;20949;-68
2022/01/02 09:57:58;;;;;;;4.67;2.15;;;;;;;-0.93;52.94;100001.55;1683981;83;21020;-66
2022/01/02 10:00:23;;;;;;;4.37;1.40;;;;;;;-0.87;53.06;100008.73;1717258;82;20928;-68
2022/01/02 10:03:00;;;;;;;9.38;4.30;;;;;;;-0.90;52.44;100017.32;1711611;82;21433;-69
2022/01/02 10:05:49;;;;;;;4.95;2.15;;;;;;;-0.96;52.10;100005.24;1711703;82;20968;-68
2022/01/02 10:08:24;;;;;;;4.40;2.62;;;;;;;-0.92;52.98;99998.33;1690154;83;21029;-67
2022/01/02 10:11:04;;;;;;;5.35;2.42;;;;;;;-0.81;50.90;99992.63;1714182;82;20969;-69
2022/01/02 10:13:51;;;;;;;;;;;;;;;-0.93;50.51;99998.02;1717525;83;20956;-68
2022/01/02 10:16:33;;;;;;;4.12;1.98;;;;;;;-1.08;48.51;99988.45;1713141;82;21102;-67
2022/01/02 10:19:26;;;;;;;5.08;2.12;;;;;;;-1.07;50.49;99987.91;1688125;83;20977;-68
2022/01/02 10:22:07;;;;;;;5.22;1.87;;;;;;;-0.94;50.26;99985.03;1713532;83;21060;-67
2022/01/02 10:24:40;;;;;;;6.70;3.00;;;;;;;-0.82;50.30;99985.03;1685253;83;20989;-69
2022/01/02 10:27:21;;;;;;;4.00;1.70;;;;;;;-0.82;48.65;99994.50;1710597;82;21103;-70
2022/01/02 10:29:56;;;;;;;4.92;2.33;;;;;;;-0.79;48.13;99996.77;1716960;83;21490;-69
2022/01/02 10:32:33;;;;;;;8.63;3.00;;;;;;;-0.78;48.03;99995.70;1715939;82;21513;-69
2022/01/02 10:35:21;;;;;;;7.80;3.17;;;;;;;-0.76;49.18;99990.05;1714358;82;21131;-70
2022/01/02 10:37:56;;;;;;;6.55;1.80;;;;;;;-0.58;49.52;99985.61;1713225;83;21004;-68
2022/01/02 10:40:35;;;;;;;3.40;1.65;;;;;;;-0.46;46.60;99982.36;1713604;83;21053;-69
2022/01/02 10:43:29;;;;;;;3.35;1.70;;;;;;;-0.52;46.34;99978.73;1718944;82;21972;-66
2022/01/02 10:46:03;;;;;;;8.30;2.72;;;;;;;-0.47;47.39;99975.30;1729054;82;21386;-68
2022/01/02 10:48:37;;;;;;;8.00;2.22;;;;;;;-0.35;47.66;99978.02;1726995;82;20989;-68
2022/01/02 10:51:14;;;;;;;7.12;3.10;;;;;;;-0.26;47.31;99965.75;1730318;82;21477;-66
2022/01/02 10:53:52;;;;;;;3.85;1.37;;;;;;;-0.21;46.68;99969.64;1721500;82;20884;-66
2022/01/02 10:56:22;;;;;;;10.00;3.75;;;;;;;-0.23;45.20;99977.17;1729228;82;21126;-68
2022/01/02 10:58:50;;;;;;;4.33;1.98;;;;;;;-0.20;46.37;99977.53;1728469;82;20992;-68
2022/01/02 11:01:16;;;;;;;5.22;2.37;;;;;;;-0.10;46.81;99972.86;1709045;82;21023;-69
2022/01/02 11:03:46;;;;;;;4.80;2.20;;;;;;;0.00;46.68;99966.86;1714737;82;21512;-66
2022/01/02 11:06:29;;;;;;;4.97;2.27;;;;;;;0.08;45.68;99960.23;1732253;82;21122;-68
2022/01/02 11:09:02;;;;;;;5.97;1.80;;;;;;;-0.15;44.30;99965.45;1726405;82;21040;-68
2022/01/02 11:11:31;;;;;;;10.90;3.08;;;;;;;-0.39;44.35;99979.53;1727922;82;21063;-69
2022/01/02 11:13:59;;;;;;;9.08;3.72;;;;;;;-0.40;45.17;99977.89;1729884;82;20965;-70
2022/01/02 11:16:25;;;;;;;8.15;2.55;;;;;;;-0.28;45.79;99976.02;1728326;82;20940;-67
2022/01/02 11:18:53;;;;;;;7.55;2.70;;;;;;;-0.26;44.55;99964.39;1731229;82;20945;-67
2022/01/02 11:21:21;;;;;;;4.78;2.10;;;;;;;-0.27;44.29;99960.56;1727904;82;21083;-66
2022/01/02 11:24:18;;;;;;;5.40;2.17;;;;;;;-0.26;44.83;99961.69;1718972;82;20995;-67
2022/01/02 11:26:49;;;;;;;3.45;1.98;;;;;;;-0.17;44.43;99960.80;1727213;82;21166;-66
2022/01/02 11:29:20;;;;;;;4.90;2.20;;;;;;;-0.23;42.87;99973.11;1711916;82;20996;-66
2022/01/02 11:31:48;;;;;;;5.60;2.02;;;;;;;-0.40;42.70;99972.48;1708367;82;21052;-67
2022/01/02 11:34:34;;;;;;;6.35;2.65;;;;;;;-0.43;43.50;99971.60;1713961;82;21158;-70
2022/01/02 11:37:20;;;;;;;5.85;2.87;;;;;;;-0.35;44.36;99975.30;1713059;82;21061;-67
2022/01/02 11:40:03;;;;;;;2.45;1.55;;;;;;;-0.12;45.13;99954.69;1691263;82;20996;-67
2022/01/02 11:42:42;;;;;;;5.28;2.10;;;;;;;0.20;44.65;99946.13;1687798;82;21045;-66
2022/01/02 11:45:11;;;;;;;11.15;5.53;;;;;;;0.59;43.75;99944.16;1711729;83;21058;-67
2022/01/02 11:47:46;;;;;;;7.15;2.80;;;;;;;0.82;42.75;99948.36;1695138;82;20967;-69
2022/01/02 11:50:37;;;;;;;2.25;1.35;;;;;;;1.17;42.13;99938.33;1708021;82;21083;-72
2022/01/02 11:53:26;;;;;;;10.60;7.65;;;;;;;1.23;40.98;99955.54;1699504;83;21584;-68